Time;durP1;ratioP1;P1;durP2;ratioP2;P2;SDS_P1;SDS_P2;PMS_P1;PMS_P2;Temp;Humidity;BMP_temperature;BMP_pressure;BME280_temperature;BME280_humidity;BME280_pressure;Samples;Min_cycle;Max_cycle;Signal;HPM_P1;HPM_P2
2021/07/16 00:00:29;;;;;;;3.80;3.50;;;21.30;84.80;;;;;;3587024;40;20043;-65
2021/07/16 00:02:56;;;;;;;6.88;3.58;;;21.30;85.30;;;;;;3589170;39;20040;-65
2021/07/16 00:05:22;;;;;;;6.85;3.72;;;21.20;85.40;;;;;;3583761;40;20118;-64
2021/07/16 00:07:48;;;;;;;4.35;3.92;;;21.20;86.10;;;;;;3583173;40;20111;-65
2021/07/16 00:10:20;;;;;;;4.82;3.15;;;21.20;86.30;;;;;;3586576;40;20072;-65
2021/07/16 00:12:47;;;;;;;9.85;3.45;;;21.30;86.30;;;;;;3582022;40;20028;-65
2021/07/16 00:15:15;;;;;;;5.43;3.53;;;21.30;86.50;;;;;;3584592;40;20029;-67
2021/07/16 00:17:41;;;;;;;4.50;4.10;;;21.20;86.70;;;;;;3588204;40;20052;-66
2021/07/16 00:20:08;;;;;;;5.82;4.50;;;21.30;87.10;;;;;;3585187;40;20470;-65
2021/07/16 00:22:35;;;;;;;6.28;4.57;;;21.30;87.40;;;;;;3571347;40;20106;-65
2021/07/16 00:25:02;;;;;;;5.53;4.70;;;21.30;87.70;;;;;;3581588;40;20060;-65
2021/07/16 00:27:27;;;;;;;4.78;4.28;;;21.30;87.60;;;;;;3578702;40;20035;-66
2021/07/16 00:29:53;;;;;;;4.32;3.90;;;21.30;87.60;;;;;;3589539;39;20431;-66
2021/07/16 00:32:19;;;;;;;4.43;4.03;;;21.30;87.50;;;;;;3585486;40;20036;-67
2021/07/16 00:34:44;;;;;;;4.13;3.72;;;21.30;87.30;;;;;;3580148;40;20056;-65
2021/07/16 00:37:10;;;;;;;4.70;4.00;;;21.30;87.10;;;;;;3584568;40;20039;-65
2021/07/16 00:39:37;;;;;;;7.97;4.15;;;21.30;86.90;;;;;;3590600;40;20017;-65
2021/07/16 00:42:03;;;;;;;4.32;3.78;;;21.30;86.80;;;;;;3584343;40;20076;-66
2021/07/16 00:44:33;;;;;;;3.78;3.47;;;21.20;86.70;;;;;;3590488;40;20523;-65
2021/07/16 00:46:59;;;;;;;4.30;3.90;;;21.20;86.90;;;;;;3588621;40;20452;-65
2021/07/16 00:49:25;;;;;;;5.53;3.85;;;21.20;86.80;;;;;;3584451;40;20071;-65
2021/07/16 00:51:51;;;;;;;6.45;4.28;;;21.20;86.70;;;;;;3583932;40;20336;-65
2021/07/16 00:54:17;;;;;;;5.22;4.00;;;21.10;87.00;;;;;;3588718;39;20422;-65
2021/07/16 00:56:42;;;;;;;6.53;4.57;;;21.10;86.90;;;;;;3589408;40;20055;-65
2021/07/16 00:59:13;;;;;;;6.00;4.55;;;21.10;87.00;;;;;;3586628;39;20029;-65
2021/07/16 01:01:39;;;;;;;5.35;4.63;;;21.10;86.90;;;;;;3583645;40;20421;-65
2021/07/16 01:04:05;;;;;;;7.15;4.60;;;21.10;86.80;;;;;;3587895;40;20044;-65
2021/07/16 01:06:30;;;;;;;4.90;4.00;;;21.00;86.80;;;;;;3591915;39;20064;-66
2021/07/16 01:08:56;;;;;;;4.28;3.88;;;21.00;87.00;;;;;;3589170;39;20437;-65
2021/07/16 01:11:22;;;;;;;4.38;3.97;;;21.00;86.90;;;;;;3583953;40;20066;-66
2021/07/16 01:13:48;;;;;;;8.45;4.35;;;21.00;86.70;;;;;;3585816;40;20421;-67
2021/07/16 01:16:13;;;;;;;5.25;4.40;;;21.00;86.50;;;;;;3590458;40;20035;-67
2021/07/16 01:18:39;;;;;;;6.28;4.88;;;20.90;86.90;;;;;;3590678;40;20032;-67
2021/07/16 01:21:05;;;;;;;6.22;4.80;;;20.90;87.40;;;;;;3585005;40;20025;-67
2021/07/16 01:23:31;;;;;;;6.20;4.50;;;20.90;87.90;;;;;;3582643;40;20051;-67
2021/07/16 01:25:57;;;;;;;5.68;5.00;;;20.90;88.00;;;;;;3587970;39;20445;-67
2021/07/16 01:28:23;;;;;;;6.70;4.75;;;20.90;88.00;;;;;;3590018;40;20024;-67
2021/07/16 01:30:51;;;;;;;5.07;4.68;;;20.80;88.10;;;;;;3587401;40;20402;-67
2021/07/16 01:33:18;;;;;;;4.82;4.28;;;20.80;88.00;;;;;;3583585;40;20033;-67
2021/07/16 01:35:44;;;;;;;7.82;4.30;;;20.80;88.00;;;;;;3586007;40;20052;-67
2021/07/16 01:38:10;;;;;;;5.82;4.65;;;20.80;88.10;;;;;;3590836;40;20101;-67
2021/07/16 01:40:37;;;;;;;5.22;4.35;;;20.80;88.20;;;;;;3589057;40;20024;-67
2021/07/16 01:43:05;;;;;;;5.45;4.57;;;20.80;88.10;;;;;;3584916;40;20465;-67
2021/07/16 01:45:34;;;;;;;5.00;4.50;;;20.80;88.20;;;;;;3582110;40;20048;-67
2021/07/16 01:48:03;;;;;;;4.90;4.25;;;20.70;88.40;;;;;;3591505;39;20041;-66
2021/07/16 01:50:30;;;;;;;4.68;4.28;;;20.70;88.20;;;;;;3583286;40;20032;-67
2021/07/16 01:52:57;;;;;;;4.97;4.47;;;20.70;87.90;;;;;;3585512;40;20450;-67
2021/07/16 01:55:24;;;;;;;6.10;4.55;;;20.70;87.70;;;;;;3583139;40;20047;-67
2021/07/16 01:57:52;;;;;;;4.90;4.50;;;20.70;87.70;;;;;;3586765;40;20420;-67
2021/07/16 02:00:21;;;;;;;5.60;4.80;;;20.70;87.70;;;;;;3590866;39;20039;-67
2021/07/16 02:02:56;;;;;;;7.55;5.18;;;20.60;87.90;;;;;;3588185;39;20048;-67
2021/07/16 02:05:22;;;;;;;5.10;4.60;;;20.60;88.00;;;;;;3585330;40;20031;-67
2021/07/16 02:07:50;;;;;;;7.50;4.68;;;20.60;88.00;;;;;;3586139;40;20052;-67
2021/07/16 02:10:20;;;;;;;5.50;4.95;;;20.60;87.80;;;;;;3585480;39;20511;-67
2021/07/16 02:12:46;;;;;;;6.22;4.60;;;20.60;87.80;;;;;;3585577;40;20052;-67
2021/07/16 02:15:22;;;;;;;4.65;4.25;;;20.60;87.70;;;;;;3589595;39;20079;-66
2021/07/16 02:17:49;;;;;;;5.88;4.63;;;20.60;87.80;;;;;;3585225;40;20027;-67
2021/07/16 02:20:45;;;;;;;6.00;5.47;;;20.50;87.80;;;;;;3584964;39;20117;-67
2021/07/16 02:23:13;;;;;;;;;;;20.50;88.10;;;;;;3586979;40;20040;-67
2021/07/16 02:25:39;;;;;;;4.88;4.40;;;20.50;87.80;;;;;;3584263;40;20626;-67
2021/07/16 02:28:08;;;;;;;5.97;4.15;;;20.50;87.80;;;;;;3587339;40;20028;-67
2021/07/16 02:30:34;;;;;;;5.22;4.43;;;20.50;87.60;;;;;;3585352;40;20138;-67
2021/07/16 02:33:00;;;;;;;4.72;4.32;;;20.50;87.40;;;;;;3583489;40;20838;-67
2021/07/16 02:35:27;;;;;;;6.75;4.68;;;20.40;87.10;;;;;;3586902;40;20045;-66
2021/07/16 02:37:53;;;;;;;5.00;4.60;;;20.40;87.00;;;;;;3585315;39;20460;-67
2021/07/16 02:40:19;;;;;;;4.75;4.10;;;20.40;86.90;;;;;;3585869;40;20025;-67
2021/07/16 02:42:45;;;;;;;6.38;4.53;;;20.30;87.20;;;;;;3589765;39;20036;-67
2021/07/16 02:45:20;;;;;;;5.25;4.75;;;20.30;87.50;;;;;;3585866;39;20104;-67
2021/07/16 02:47:46;;;;;;;5.85;4.85;;;20.30;87.80;;;;;;3588068;40;20066;-67
2021/07/16 02:50:14;;;;;;;5.75;4.85;;;20.30;87.60;;;;;;3583503;40;20047;-67
2021/07/16 02:52:41;;;;;;;8.82;4.47;;;20.30;87.80;;;;;;3585062;39;20687;-67
2021/07/16 02:55:08;;;;;;;5.40;4.80;;;20.30;87.90;;;;;;3589957;40;20106;-67
2021/07/16 02:57:34;;;;;;;6.13;4.95;;;20.20;88.10;;;;;;3586974;39;20048;-67
2021/07/16 03:00:00;;;;;;;5.90;4.80;;;20.20;88.30;;;;;;3590866;39;20081;-67
2021/07/16 03:02:28;;;;;;;5.90;4.85;;;20.20;88.30;;;;;;3586162;39;20039;-68
2021/07/16 03:04:55;;;;;;;5.53;5.03;;;20.20;88.20;;;;;;3588269;40;20024;-67
2021/07/16 03:07:21;;;;;;;7.78;6.10;;;20.20;88.20;;;;;;3587667;39;20025;-64
2021/07/16 03:09:47;;;;;;;4.93;4.45;;;20.10;88.10;;;;;;3587514;40;20126;-65
2021/07/16 03:12:12;;;;;;;6.07;5.00;;;20.10;88.20;;;;;;3585615;40;20044;-68
2021/07/16 03:14:39;;;;;;;6.72;4.72;;;20.10;88.40;;;;;;3588790;40;20032;-67
2021/07/16 03:17:06;;;;;;;6.65;5.38;;;20.10;88.50;;;;;;3583862;40;20033;-67
2021/07/16 03:19:31;;;;;;;5.78;5.28;;;20.10;88.70;;;;;;3584100;40;20024;-67
2021/07/16 03:21:57;;;;;;;5.78;5.28;;;20.20;88.60;;;;;;3583419;40;20035;-67
2021/07/16 03:24:23;;;;;;;5.95;5.25;;;20.20;88.30;;;;;;3585608;40;20035;-67
2021/07/16 03:26:48;;;;;;;5.60;5.10;;;20.20;88.20;;;;;;3582587;40;20033;-67
2021/07/16 03:29:14;;;;;;;5.78;5.28;;;20.20;87.90;;;;;;3584325;40;20040;-67
2021/07/16 03:31:40;;;;;;;5.78;5.25;;;20.30;87.90;;;;;;3583853;40;20075;-67
2021/07/16 03:34:05;;;;;;;6.28;5.28;;;20.30;87.90;;;;;;3585176;40;20036;-67
2021/07/16 03:36:31;;;;;;;9.50;5.20;;;20.30;87.80;;;;;;3586150;40;20028;-67
2021/07/16 03:38:57;;;;;;;5.65;5.15;;;20.30;88.20;;;;;;3588483;39;20740;-67
2021/07/16 03:41:22;;;;;;;6.03;5.43;;;20.40;88.30;;;;;;3583479;39;20083;-67
2021/07/16 03:43:48;;;;;;;5.60;5.00;;;20.40;88.10;;;;;;3586681;40;20622;-67
2021/07/16 03:46:16;;;;;;;7.07;5.28;;;20.50;87.90;;;;;;3584763;39;20334;-67
2021/07/16 03:48:42;;;;;;;8.90;5.50;;;20.50;87.80;;;;;;3588056;40;20032;-67
2021/07/16 03:51:08;;;;;;;7.88;5.32;;;20.50;87.70;;;;;;3585666;40;20120;-68
2021/07/16 03:53:34;;;;;;;7.05;5.45;;;20.60;87.90;;;;;;3584746;40;20032;-67
2021/07/16 03:56:00;;;;;;;10.00;5.20;;;20.60;87.80;;;;;;3586144;40;20039;-67
2021/07/16 03:58:26;;;;;;;6.32;4.95;;;20.60;87.70;;;;;;3581141;40;20777;-67
2021/07/16 04:00:51;;;;;;;6.80;5.05;;;20.70;87.90;;;;;;3586349;40;20736;-67
2021/07/16 04:03:17;;;;;;;6.40;5.40;;;20.70;87.80;;;;;;3582610;39;20040;-67
2021/07/16 04:05:45;;;;;;;7.43;5.63;;;20.80;87.70;;;;;;3582835;40;20039;-67
2021/07/16 04:08:16;;;;;;;6.10;5.50;;;20.80;87.60;;;;;;3582704;39;20098;-68
2021/07/16 04:10:42;;;;;;;5.78;5.28;;;20.80;87.50;;;;;;3585827;40;20025;-67
2021/07/16 04:13:10;;;;;;;6.43;5.53;;;20.90;87.00;;;;;;3586929;39;20035;-67
2021/07/16 04:15:37;;;;;;;5.57;5.07;;;21.00;87.10;;;;;;3585258;39;20150;-67
2021/07/16 04:18:05;;;;;;;7.47;5.22;;;21.00;87.00;;;;;;3584789;40;20047;-67
2021/07/16 04:20:33;;;;;;;5.43;4.63;;;21.10;87.20;;;;;;3583399;40;20066;-68
2021/07/16 04:22:59;;;;;;;8.40;5.40;;;21.10;87.00;;;;;;3585512;40;20033;-67
2021/07/16 04:25:25;;;;;;;6.32;4.88;;;21.20;87.40;;;;;;3585594;40;20156;-67
2021/07/16 04:27:53;;;;;;;6.07;5.38;;;21.20;87.40;;;;;;3585525;40;20642;-67
2021/07/16 04:30:21;;;;;;;8.77;5.38;;;21.20;87.40;;;;;;3582248;40;20025;-67
2021/07/16 04:32:48;;;;;;;5.45;4.80;;;21.20;87.20;;;;;;3584649;40;20029;-68
2021/07/16 04:35:15;;;;;;;5.72;5.22;;;21.20;87.30;;;;;;3584911;40;20036;-67
2021/07/16 04:37:42;;;;;;;5.55;5.00;;;21.30;87.30;;;;;;3586285;39;20033;-68
2021/07/16 04:40:11;;;;;;;5.85;5.35;;;21.30;87.10;;;;;;3582463;40;20075;-67
2021/07/16 04:42:36;;;;;;;5.72;5.15;;;21.20;87.00;;;;;;3588259;40;20051;-67
2021/07/16 04:45:03;;;;;;;6.78;5.00;;;21.20;87.00;;;;;;3581222;40;20024;-68
2021/07/16 04:47:29;;;;;;;5.75;5.15;;;21.20;86.90;;;;;;3580210;40;20029;-68
2021/07/16 04:49:54;;;;;;;6.53;5.68;;;21.20;87.10;;;;;;3585577;40;20044;-67
2021/07/16 04:52:21;;;;;;;6.13;5.53;;;21.20;87.30;;;;;;3582684;40;20036;-67
2021/07/16 04:54:47;;;;;;;5.97;5.45;;;21.20;87.00;;;;;;3583246;40;20024;-68
2021/07/16 04:57:12;;;;;;;5.75;5.15;;;21.30;87.10;;;;;;3583381;40;20797;-67
2021/07/16 04:59:38;;;;;;;6.18;5.57;;;21.30;87.10;;;;;;3581301;40;20036;-67
2021/07/16 05:02:05;;;;;;;5.65;5.13;;;21.20;87.10;;;;;;3587055;39;20345;-68
2021/07/16 05:04:32;;;;;;;5.68;5.18;;;21.30;87.20;;;;;;3582896;40;20040;-67
2021/07/16 05:06:57;;;;;;;6.35;5.57;;;21.30;87.20;;;;;;3585310;40;20049;-68
2021/07/16 05:09:23;;;;;;;6.22;5.55;;;21.30;87.10;;;;;;3589705;40;20120;-68
2021/07/16 05:11:50;;;;;;;6.13;5.63;;;21.40;87.20;;;;;;3584027;40;20032;-67
2021/07/16 05:14:16;;;;;;;5.80;5.30;;;21.40;87.40;;;;;;3584400;40;20044;-67
2021/07/16 05:16:42;;;;;;;6.43;5.47;;;21.40;87.50;;;;;;3586802;39;20304;-67
2021/07/16 05:19:08;;;;;;;6.38;5.80;;;21.50;87.30;;;;;;3585724;39;20402;-67
2021/07/16 05:21:33;;;;;;;6.43;5.82;;;21.50;87.20;;;;;;3583864;40;20017;-67
2021/07/16 05:24:00;;;;;;;6.35;5.75;;;21.60;87.20;;;;;;3586078;39;20044;-67
2021/07/16 05:26:26;;;;;;;6.50;5.90;;;21.60;87.20;;;;;;3584954;40;20055;-67
2021/07/16 05:28:52;;;;;;;6.75;6.15;;;21.70;87.10;;;;;;3587153;40;20255;-67
2021/07/16 05:31:18;;;;;;;7.60;5.97;;;21.80;86.50;;;;;;3584372;40;20108;-67
2021/07/16 05:33:44;;;;;;;6.78;6.07;;;21.80;86.00;;;;;;3585663;40;20032;-67
2021/07/16 05:36:10;;;;;;;6.88;6.20;;;21.90;86.30;;;;;;3583737;39;20123;-67
2021/07/16 05:38:37;;;;;;;7.40;6.70;;;22.00;85.90;;;;;;3586432;39;20028;-67
2021/07/16 05:41:06;;;;;;;6.80;6.20;;;22.10;85.20;;;;;;3583874;40;20469;-67
2021/07/16 05:43:34;;;;;;;7.93;6.32;;;22.20;84.50;;;;;;3587981;40;20025;-68
2021/07/16 05:46:00;;;;;;;7.22;6.53;;;22.20;83.90;;;;;;3584105;40;20413;-67
2021/07/16 05:48:26;;;;;;;6.70;5.68;;;22.30;83.80;;;;;;3588807;39;20105;-67
2021/07/16 05:50:52;;;;;;;7.80;6.50;;;22.40;84.00;;;;;;3583801;39;20040;-67
2021/07/16 05:53:18;;;;;;;9.15;5.95;;;22.50;83.00;;;;;;3587660;40;20032;-67
2021/07/16 05:55:44;;;;;;;10.55;6.45;;;22.50;82.50;;;;;;3584505;40;20398;-66
2021/07/16 05:58:10;;;;;;;7.10;6.40;;;22.50;83.40;;;;;;3584500;40;20025;-66
2021/07/16 06:00:36;;;;;;;9.50;7.03;;;22.60;82.70;;;;;;3585221;40;20113;-66
2021/07/16 06:03:03;;;;;;;7.35;6.65;;;22.60;82.40;;;;;;3592077;39;20062;-66
2021/07/16 06:05:29;;;;;;;7.22;6.57;;;22.70;82.20;;;;;;3587252;39;20025;-66
2021/07/16 06:07:55;;;;;;;8.82;6.72;;;22.70;82.20;;;;;;3588161;40;20048;-66
2021/07/16 06:10:21;;;;;;;7.65;6.95;;;22.80;82.10;;;;;;3583986;40;20028;-66
2021/07/16 06:12:46;;;;;;;6.65;5.95;;;22.90;82.00;;;;;;3584174;40;20036;-66
2021/07/16 06:15:12;;;;;;;7.32;6.63;;;22.90;82.20;;;;;;3587686;40;20047;-66
2021/07/16 06:17:39;;;;;;;6.22;5.68;;;23.00;81.60;;;;;;3586464;39;20028;-66
2021/07/16 06:20:06;;;;;;;9.18;6.20;;;23.10;81.00;;;;;;3582609;40;20695;-66
2021/07/16 06:22:33;;;;;;;7.07;6.38;;;23.20;79.60;;;;;;3588113;40;20039;-67
2021/07/16 06:24:58;;;;;;;9.18;7.00;;;23.20;78.60;;;;;;3590511;40;20035;-67
2021/07/16 06:27:24;;;;;;;7.18;6.47;;;23.20;78.50;;;;;;3585009;40;20024;-67
2021/07/16 06:29:50;;;;;;;8.18;7.38;;;23.30;78.40;;;;;;3583054;40;20333;-67
2021/07/16 06:32:15;;;;;;;8.98;8.05;;;23.50;77.80;;;;;;3587105;40;20020;-68
2021/07/16 06:34:41;;;;;;;10.18;7.95;;;23.80;76.60;;;;;;3589055;39;20028;-67
2021/07/16 06:37:07;;;;;;;11.35;9.23;;;23.80;76.50;;;;;;3581303;40;20059;-67
2021/07/16 06:39:33;;;;;;;10.40;7.75;;;23.90;76.70;;;;;;3584092;40;20016;-66
2021/07/16 06:41:58;;;;;;;9.77;8.07;;;23.90;76.80;;;;;;3585594;40;20024;-66
2021/07/16 06:44:24;;;;;;;9.45;7.20;;;23.90;76.50;;;;;;3586954;40;20044;-66
2021/07/16 06:46:50;;;;;;;11.05;7.30;;;23.80;76.80;;;;;;3589328;40;20032;-67
2021/07/16 06:49:16;;;;;;;11.07;7.60;;;23.90;76.80;;;;;;3588239;39;20036;-67
2021/07/16 06:51:42;;;;;;;10.02;7.93;;;23.90;77.00;;;;;;3590768;40;20024;-67
2021/07/16 06:54:07;;;;;;;8.45;7.28;;;23.90;76.60;;;;;;3583790;40;20044;-67
2021/07/16 06:56:36;;;;;;;7.57;6.88;;;24.00;77.00;;;;;;3583975;40;20024;-68
2021/07/16 06:59:04;;;;;;;8.50;7.15;;;24.10;76.60;;;;;;3588200;40;20554;-67
2021/07/16 07:01:30;;;;;;;7.35;6.65;;;24.20;76.00;;;;;;3589915;40;20032;-67
2021/07/16 07:03:56;;;;;;;7.90;7.15;;;24.30;75.50;;;;;;3588436;40;20043;-67
2021/07/16 07:06:22;;;;;;;10.70;7.93;;;24.30;75.70;;;;;;3586005;40;20040;-66
2021/07/16 07:08:48;;;;;;;7.60;6.90;;;24.40;75.70;;;;;;3584618;40;20024;-67
2021/07/16 07:11:14;;;;;;;11.30;9.02;;;24.40;75.60;;;;;;3584555;40;20051;-66
2021/07/16 07:13:39;;;;;;;8.50;7.70;;;24.50;76.00;;;;;;3584988;40;20040;-66
2021/07/16 07:16:05;;;;;;;10.27;8.18;;;24.60;74.80;;;;;;3588055;40;20028;-67
2021/07/16 07:18:31;;;;;;;9.35;8.40;;;24.70;74.60;;;;;;3591346;39;20064;-66
2021/07/16 07:20:57;;;;;;;13.02;8.75;;;24.80;74.40;;;;;;3586251;40;20024;-66
2021/07/16 07:23:23;;;;;;;12.40;8.25;;;24.80;75.00;;;;;;3586597;39;20302;-67
2021/07/16 07:25:49;;;;;;;12.10;8.32;;;24.90;74.30;;;;;;3587669;40;20072;-67
2021/07/16 07:28:16;;;;;;;8.15;7.13;;;24.90;73.40;;;;;;3583579;40;20062;-67
2021/07/16 07:30:43;;;;;;;8.90;8.00;;;24.90;73.90;;;;;;3580509;40;20767;-66
2021/07/16 07:33:09;;;;;;;8.50;7.70;;;25.00;73.50;;;;;;3582872;39;20186;-67
2021/07/16 07:35:35;;;;;;;8.45;7.55;;;25.00;73.80;;;;;;3581962;40;20789;-66
2021/07/16 07:38:02;;;;;;;9.32;7.60;;;25.00;73.90;;;;;;3584498;40;20117;-67
2021/07/16 07:40:28;;;;;;;10.75;7.13;;;25.00;73.50;;;;;;3584069;40;20025;-66
2021/07/16 07:42:55;;;;;;;11.95;7.63;;;25.00;73.90;;;;;;3586284;40;20402;-66
2021/07/16 07:45:20;;;;;;;7.90;7.07;;;25.10;73.60;;;;;;3590319;39;20028;-67
2021/07/16 07:47:47;;;;;;;9.07;6.35;;;25.10;71.90;;;;;;3586063;39;20478;-66
2021/07/16 07:50:16;;;;;;;12.23;7.13;;;25.20;71.40;;;;;;3588769;39;20032;-66
2021/07/16 07:52:43;;;;;;;8.98;7.55;;;25.20;71.40;;;;;;3585461;40;20068;-66
2021/07/16 07:55:10;;;;;;;8.27;7.10;;;25.30;71.30;;;;;;3582094;40;20134;-66
2021/07/16 07:57:37;;;;;;;8.88;7.35;;;25.30;71.30;;;;;;3587109;40;20039;-67
2021/07/16 08:00:09;;;;;;;8.45;7.00;;;25.40;72.20;;;;;;3584828;40;20033;-66
2021/07/16 08:02:38;;;;;;;10.13;7.17;;;25.50;71.90;;;;;;3586113;39;20032;-67
2021/07/16 08:05:04;;;;;;;11.05;6.93;;;25.60;71.30;;;;;;3581699;40;20028;-66
2021/07/16 08:07:31;;;;;;;7.47;6.70;;;25.60;71.60;;;;;;3579924;40;20075;-66
2021/07/16 08:09:56;;;;;;;8.13;7.40;;;25.70;71.70;;;;;;3585571;40;20028;-67
2021/07/16 08:12:22;;;;;;;7.75;6.47;;;25.70;72.20;;;;;;3589329;40;20088;-66
2021/07/16 08:14:48;;;;;;;10.75;7.20;;;25.80;72.00;;;;;;3584533;40;20126;-67
2021/07/16 08:17:13;;;;;;;7.35;6.65;;;25.90;71.30;;;;;;3580764;40;20032;-66
2021/07/16 08:19:39;;;;;;;9.05;7.28;;;26.00;71.50;;;;;;3584022;40;20028;-67
2021/07/16 08:22:05;;;;;;;7.85;6.53;;;26.00;71.40;;;;;;3589528;40;20027;-67
2021/07/16 08:24:31;;;;;;;7.45;6.75;;;26.10;71.10;;;;;;3583833;40;20033;-66
2021/07/16 08:26:56;;;;;;;9.82;7.30;;;26.30;71.20;;;;;;3588573;40;20101;-67
2021/07/16 08:29:23;;;;;;;9.25;6.13;;;26.40;71.10;;;;;;3585886;40;20386;-67
2021/07/16 08:31:48;;;;;;;6.88;6.22;;;26.60;69.80;;;;;;3587818;40;20028;-66
2021/07/16 08:34:16;;;;;;;8.02;5.95;;;26.80;68.90;;;;;;3587491;40;20116;-66
2021/07/16 08:36:42;;;;;;;6.60;5.75;;;26.90;68.30;;;;;;3582623;40;20032;-67
2021/07/16 08:39:08;;;;;;;10.63;7.22;;;27.00;68.70;;;;;;3581234;40;20310;-66
2021/07/16 08:41:34;;;;;;;7.45;6.22;;;27.20;68.30;;;;;;3583531;40;20064;-66
2021/07/16 08:44:00;;;;;;;6.85;6.13;;;27.30;68.50;;;;;;3585539;40;20028;-66
2021/07/16 08:46:26;;;;;;;7.95;5.95;;;27.40;68.10;;;;;;3585862;40;20028;-67
2021/07/16 08:48:51;;;;;;;8.63;5.72;;;27.40;67.50;;;;;;3580803;40;20027;-66
2021/07/16 08:51:20;;;;;;;7.57;6.00;;;27.50;66.00;;;;;;3583157;40;20036;-66
2021/07/16 08:53:50;;;;;;;6.20;5.38;;;27.50;66.80;;;;;;3580605;40;20032;-66
2021/07/16 08:56:17;;;;;;;5.88;5.28;;;27.60;66.40;;;;;;3581787;40;20081;-66
2021/07/16 08:58:43;;;;;;;5.95;5.25;;;27.60;65.90;;;;;;3588048;39;20129;-66
2021/07/16 09:01:10;;;;;;;6.28;5.50;;;27.60;66.00;;;;;;3587759;40;20028;-67
2021/07/16 09:03:37;;;;;;;7.40;5.50;;;27.70;66.40;;;;;;3587427;39;20188;-66
2021/07/16 09:06:05;;;;;;;5.80;5.15;;;27.70;66.10;;;;;;3590523;39;20169;-65
2021/07/16 09:08:30;;;;;;;5.93;4.70;;;27.70;66.20;;;;;;3587077;40;20065;-65
2021/07/16 09:11:00;;;;;;;5.47;4.93;;;27.70;65.90;;;;;;3590125;40;20017;-65
2021/07/16 09:13:31;;;;;;;5.78;4.50;;;27.80;65.10;;;;;;3586171;40;20048;-65
2021/07/16 09:16:00;;;;;;;5.32;4.80;;;27.90;65.00;;;;;;3587337;40;20032;-65
2021/07/16 09:18:32;;;;;;;5.18;4.70;;;28.00;65.10;;;;;;3587117;39;20055;-66
2021/07/16 09:21:05;;;;;;;7.05;4.72;;;28.10;64.50;;;;;;3582796;40;20028;-66
2021/07/16 09:23:35;;;;;;;5.80;5.20;;;28.20;63.60;;;;;;3583398;40;20033;-66
2021/07/16 09:26:11;;;;;;;8.50;5.20;;;28.20;63.70;;;;;;3582863;39;20168;-66
2021/07/16 09:28:39;;;;;;;5.75;4.97;;;28.30;63.80;;;;;;3583709;40;20061;-66
2021/07/16 09:31:25;;;;;;;6.80;4.85;;;28.30;63.90;;;;;;3584110;40;20047;-66
2021/07/16 09:33:57;;;;;;;6.40;4.65;;;28.30;63.50;;;;;;3584102;40;20035;-66
2021/07/16 09:36:28;;;;;;;7.05;5.00;;;28.30;63.20;;;;;;3582312;40;20024;-66
2021/07/16 09:39:06;;;;;;;7.43;4.78;;;28.30;63.20;;;;;;3586537;40;20080;-66
2021/07/16 09:41:32;;;;;;;6.45;4.90;;;28.20;63.50;;;;;;3583003;40;20347;-66
2021/07/16 09:44:01;;;;;;;7.25;5.30;;;28.30;64.30;;;;;;3586967;40;20585;-66
2021/07/16 09:46:27;;;;;;;6.82;4.72;;;28.30;63.00;;;;;;3585876;39;20031;-66
2021/07/16 09:48:53;;;;;;;6.60;4.80;;;28.40;62.90;;;;;;3582447;40;20056;-66
2021/07/16 09:51:21;;;;;;;7.55;4.43;;;28.40;62.20;;;;;;3583649;40;20106;-66
2021/07/16 09:53:53;;;;;;;5.60;5.03;;;28.50;63.10;;;;;;3584234;40;20024;-67
2021/07/16 09:56:27;;;;;;;5.85;4.70;;;28.50;61.40;;;;;;3584533;40;20043;-66
2021/07/16 09:59:09;;;;;;;7.18;5.10;;;28.50;62.60;;;;;;3584480;40;20043;-66
2021/07/16 10:01:46;;;;;;;6.28;5.53;;;28.50;61.60;;;;;;3584410;40;20037;-66
2021/07/16 10:04:18;;;;;;;8.10;5.18;;;28.60;62.70;;;;;;3584511;40;20038;-66
2021/07/16 10:06:47;;;;;;;8.40;5.15;;;28.60;61.20;;;;;;3584022;40;20048;-66
2021/07/16 10:09:14;;;;;;;6.63;4.65;;;28.60;61.70;;;;;;3581559;39;20037;-66
2021/07/16 10:11:41;;;;;;;6.75;5.30;;;28.60;61.50;;;;;;3585452;40;20029;-66
2021/07/16 10:14:12;;;;;;;6.80;4.65;;;28.60;61.90;;;;;;3586965;40;20032;-66
2021/07/16 10:16:41;;;;;;;5.97;4.82;;;28.70;60.60;;;;;;3585040;40;20669;-66
2021/07/16 10:19:07;;;;;;;7.22;5.22;;;28.80;60.20;;;;;;3587755;40;20098;-66
2021/07/16 10:21:35;;;;;;;9.57;5.10;;;28.80;60.90;;;;;;3581335;40;20048;-66
2021/07/16 10:24:00;;;;;;;7.85;4.97;;;29.00;60.70;;;;;;3585782;40;20082;-66
2021/07/16 10:26:27;;;;;;;7.85;4.90;;;29.10;59.80;;;;;;3588563;40;20040;-66
2021/07/16 10:28:53;;;;;;;7.18;4.97;;;29.40;59.70;;;;;;3586440;39;20364;-66
2021/07/16 10:31:28;;;;;;;6.75;5.18;;;29.50;60.00;;;;;;3583365;40;20037;-66
2021/07/16 10:33:55;;;;;;;7.68;5.07;;;29.60;60.10;;;;;;3583749;40;20067;-69
2021/07/16 10:36:44;;;;;;;8.50;5.35;;;29.60;59.40;;;;;;3584174;40;20853;-68
2021/07/16 10:39:21;;;;;;;8.57;5.07;;;29.70;59.00;;;;;;3583778;40;20028;-66
2021/07/16 10:41:48;;;;;;;6.03;5.43;;;29.70;58.90;;;;;;3581335;40;20039;-69
2021/07/16 10:44:15;;;;;;;8.30;5.28;;;29.70;58.40;;;;;;3587926;39;20033;-66
2021/07/16 10:46:44;;;;;;;7.95;5.38;;;29.70;59.00;;;;;;3583195;40;20036;-65
2021/07/16 10:49:12;;;;;;;8.35;5.82;;;29.80;59.50;;;;;;3583189;40;20024;-65
2021/07/16 10:51:40;;;;;;;6.90;6.07;;;29.90;58.60;;;;;;3588092;39;20161;-65
2021/07/16 10:54:10;;;;;;;5.55;4.70;;;30.00;58.60;;;;;;3588992;39;20055;-65
2021/07/16 10:56:47;;;;;;;7.15;5.38;;;30.20;57.20;;;;;;3584709;39;20025;-65
2021/07/16 10:59:43;;;;;;;7.30;5.93;;;30.30;56.80;;;;;;3582973;40;20040;-65
2021/07/16 11:02:49;;;;;;;6.55;5.82;;;30.20;58.10;;;;;;3583188;39;20047;-65
2021/07/16 11:05:36;;;;;;;10.85;6.15;;;30.10;58.30;;;;;;3584335;40;20039;-66
2021/07/16 11:08:03;;;;;;;9.38;5.97;;;30.00;58.40;;;;;;3582234;40;20410;-66
2021/07/16 11:10:52;;;;;;;7.15;6.30;;;30.00;57.80;;;;;;3585070;39;20544;-66
2021/07/16 11:13:50;;;;;;;9.50;5.25;;;29.90;57.80;;;;;;3587320;40;20120;-66
2021/07/16 11:16:16;;;;;;;7.03;6.25;;;29.90;60.70;;;;;;3587051;39;20020;-65
2021/07/16 11:18:59;;;;;;;6.80;5.90;;;29.80;60.10;;;;;;3583074;40;20068;-65
2021/07/16 11:21:40;;;;;;;7.88;5.78;;;29.90;59.90;;;;;;3581849;40;20085;-64
2021/07/16 11:24:07;;;;;;;7.15;6.45;;;29.90;58.50;;;;;;3586365;40;20047;-66
2021/07/16 11:27:01;;;;;;;11.57;7.35;;;30.00;59.60;;;;;;3580774;40;20052;-66
2021/07/16 11:29:32;;;;;;;10.65;6.63;;;30.10;58.60;;;;;;3586195;40;20066;-66
2021/07/16 11:32:08;;;;;;;8.63;6.55;;;30.20;58.50;;;;;;3580777;40;20032;-66
2021/07/16 11:34:35;;;;;;;9.65;6.63;;;30.10;58.70;;;;;;3583863;40;20088;-66
2021/07/16 11:37:01;;;;;;;7.93;6.65;;;30.10;58.80;;;;;;3582216;40;20071;-66
2021/07/16 11:39:33;;;;;;;8.95;6.20;;;30.10;59.20;;;;;;3586780;40;20035;-66
2021/07/16 11:42:00;;;;;;;8.23;5.72;;;30.10;59.10;;;;;;3583955;40;20020;-66
2021/07/16 11:44:33;;;;;;;8.20;6.38;;;30.20;58.70;;;;;;3585323;40;20344;-65
2021/07/16 11:47:16;;;;;;;7.53;5.50;;;30.20;58.10;;;;;;3584125;40;20021;-65
2021/07/16 11:49:45;;;;;;;7.55;5.32;;;30.30;56.50;;;;;;3581846;40;20028;-65
2021/07/16 11:52:13;;;;;;;8.38;5.95;;;30.20;56.70;;;;;;3583969;40;20341;-65
2021/07/16 11:54:39;;;;;;;6.40;5.40;;;30.10;57.40;;;;;;3582745;40;20406;-65
2021/07/16 11:57:05;;;;;;;8.52;5.75;;;30.00;55.90;;;;;;3582293;40;20114;-65
2021/07/16 11:59:31;;;;;;;12.98;6.28;;;30.00;55.70;;;;;;3580653;40;20841;-65
2021/07/16 12:02:11;;;;;;;9.75;6.05;;;30.00;55.70;;;;;;3580966;40;20092;-65
2021/07/16 12:04:39;;;;;;;8.15;6.40;;;30.00;56.90;;;;;;3582665;39;21023;-65
2021/07/16 12:07:05;;;;;;;7.78;6.35;;;30.00;57.20;;;;;;3579290;40;20618;-65
2021/07/16 12:09:36;;;;;;;6.95;6.25;;;29.90;58.50;;;;;;3581295;40;20402;-65
2021/07/16 12:12:23;;;;;;;8.23;5.97;;;30.00;58.50;;;;;;3585011;40;20745;-65
2021/07/16 12:14:54;;;;;;;7.55;5.57;;;30.10;58.70;;;;;;3587810;39;20032;-65
2021/07/16 12:17:24;;;;;;;7.15;6.25;;;30.30;56.70;;;;;;3581345;40;20117;-65
2021/07/16 12:19:51;;;;;;;9.95;6.60;;;30.50;57.00;;;;;;3568987;40;20073;-65
2021/07/16 12:22:21;;;;;;;9.13;7.55;;;30.60;57.70;;;;;;3581604;40;20333;-66
2021/07/16 12:24:46;;;;;;;12.38;7.90;;;30.60;58.40;;;;;;3587988;40;20043;-66
2021/07/16 12:27:13;;;;;;;8.90;7.05;;;30.70;58.20;;;;;;3582167;40;20762;-66
2021/07/16 12:29:40;;;;;;;7.35;6.60;;;30.70;57.70;;;;;;3585406;40;20394;-66
2021/07/16 12:32:07;;;;;;;7.50;6.65;;;30.60;57.50;;;;;;3582891;39;20033;-67
2021/07/16 12:34:33;;;;;;;8.30;6.57;;;30.60;57.70;;;;;;3589140;39;20016;-65
2021/07/16 12:37:13;;;;;;;8.27;7.10;;;30.50;58.10;;;;;;3581990;40;20032;-66
2021/07/16 12:39:42;;;;;;;9.57;6.68;;;30.50;58.50;;;;;;3586139;40;20749;-65
2021/07/16 12:42:09;;;;;;;8.23;6.75;;;30.40;58.80;;;;;;3582733;40;20086;-65
2021/07/16 12:44:34;;;;;;;7.78;6.30;;;30.40;57.50;;;;;;3587424;40;20352;-65
2021/07/16 12:47:00;;;;;;;14.80;7.53;;;30.50;58.00;;;;;;3588765;39;20062;-65
2021/07/16 12:49:26;;;;;;;9.75;7.85;;;30.50;58.50;;;;;;3584244;40;20428;-67